Time;durP1;ratioP1;P1;durP2;ratioP2;P2;SDS_P1;SDS_P2;PMS_P1;PMS_P2;Temp;Humidity;BMP_temperature;BMP_pressure;BME280_temperature;BME280_humidity;BME280_pressure;Samples;Min_cycle;Max_cycle;Signal;HPM_P1;HPM_P2
2021/05/16 00:00:51;;;;;;;5.13;1.90;;;6.30;99.90;;;;;;2080287;28;20185;-66
2021/05/16 00:01:52;;;;;;;2.73;1.87;;;6.30;99.90;;;;;;2079929;28;20711;-65
2021/05/16 00:02:54;;;;;;;4.00;1.87;;;6.30;99.90;;;;;;2080751;28;20200;-65
2021/05/16 00:03:54;;;;;;;3.20;1.60;;;6.30;99.90;;;;;;2080833;28;20189;-66
2021/05/16 00:04:55;;;;;;;3.03;1.93;;;6.30;99.90;;;;;;2080933;28;20232;-66
2021/05/16 00:05:56;;;;;;;5.90;2.50;;;6.20;99.90;;;;;;2080858;28;20552;-65
2021/05/16 00:06:57;;;;;;;4.43;1.77;;;6.20;99.90;;;;;;2080652;28;20180;-65
2021/05/16 00:07:58;;;;;;;4.07;1.70;;;6.20;99.90;;;;;;2080814;28;20173;-66
2021/05/16 00:08:59;;;;;;;3.75;1.80;;;6.20;99.90;;;;;;2080592;28;20293;-65
2021/05/16 00:10:00;;;;;;;2.20;1.63;;;6.20;99.90;;;;;;2081083;28;20188;-65
2021/05/16 00:11:02;;;;;;;3.63;1.40;;;6.10;99.90;;;;;;2080747;28;20184;-65
2021/05/16 00:12:04;;;;;;;3.50;1.70;;;6.10;99.90;;;;;;2080073;28;20555;-66
2021/05/16 00:13:05;;;;;;;2.97;1.55;;;6.10;99.90;;;;;;2079775;28;20231;-65
2021/05/16 00:14:11;;;;;;;5.03;2.00;;;6.10;99.90;;;;;;2080814;28;20173;-65
2021/05/16 00:15:59;;;;;;;1.95;1.55;;;6.10;99.90;;;;;;2080358;28;21015;-65
2021/05/16 00:17:01;;;;;;;4.00;1.60;;;6.10;99.90;;;;;;2080090;28;20351;-65
2021/05/16 00:18:02;;;;;;;2.67;1.40;;;6.10;99.90;;;;;;2080247;28;20208;-66
2021/05/16 00:19:04;;;;;;;2.60;1.60;;;6.10;99.90;;;;;;2080626;28;20234;-65
2021/05/16 00:20:10;;;;;;;3.05;2.05;;;6.20;99.90;;;;;;2080755;28;20177;-65
2021/05/16 00:21:11;;;;;;;3.55;1.80;;;6.20;99.90;;;;;;2080844;28;20201;-65
2021/05/16 00:22:11;;;;;;;6.07;1.70;;;6.20;99.90;;;;;;2082328;28;20639;-66
2021/05/16 00:23:12;;;;;;;2.13;1.43;;;6.20;99.90;;;;;;2082461;28;20184;-66
2021/05/16 00:24:13;;;;;;;3.70;1.60;;;6.20;99.90;;;;;;2082468;28;20307;-65
2021/05/16 00:25:17;;;;;;;3.42;1.50;;;6.20;99.90;;;;;;2082202;28;20242;-66
2021/05/16 00:26:18;;;;;;;2.90;1.63;;;6.20;99.90;;;;;;2082453;28;20644;-66
2021/05/16 00:27:18;;;;;;;2.13;1.60;;;6.30;99.90;;;;;;2082268;28;20181;-65
2021/05/16 00:28:19;;;;;;;2.23;1.60;;;6.20;99.90;;;;;;2082335;28;20176;-66
2021/05/16 00:29:20;;;;;;;3.47;1.50;;;6.30;99.90;;;;;;2082294;28;20176;-66
2021/05/16 00:30:25;;;;;;;3.63;1.23;;;6.30;99.90;;;;;;2082201;28;20173;-65
2021/05/16 00:31:25;;;;;;;3.63;1.48;;;6.30;99.90;;;;;;2082079;28;20173;-66
2021/05/16 00:32:26;;;;;;;2.83;1.40;;;6.30;99.90;;;;;;2082250;28;20187;-66
2021/05/16 00:33:27;;;;;;;3.37;1.67;;;6.30;99.90;;;;;;2082366;28;20641;-65
2021/05/16 00:34:27;;;;;;;2.47;1.60;;;6.30;99.90;;;;;;2082435;28;20209;-66
2021/05/16 00:35:32;;;;;;;2.67;1.50;;;6.30;99.90;;;;;;2082133;28;20180;-66
2021/05/16 00:36:33;;;;;;;3.85;1.55;;;6.30;99.90;;;;;;2082228;28;20181;-65
2021/05/16 00:37:34;;;;;;;3.83;1.80;;;6.30;99.90;;;;;;2082163;28;20275;-66
2021/05/16 00:38:35;;;;;;;3.58;1.45;;;6.40;99.90;;;;;;2082341;28;20183;-65
2021/05/16 00:39:36;;;;;;;3.00;1.50;;;6.30;99.90;;;;;;2082278;28;20649;-66
2021/05/16 00:40:37;;;;;;;4.53;1.80;;;6.40;99.90;;;;;;2082401;28;20177;-65
2021/05/16 00:41:37;;;;;;;4.77;1.70;;;6.50;99.90;;;;;;2081349;28;20644;-65
2021/05/16 00:42:38;;;;;;;2.70;1.23;;;6.40;99.90;;;;;;2081670;28;20204;-66
2021/05/16 00:43:39;;;;;;;4.18;1.60;;;6.50;99.90;;;;;;2081691;28;20174;-65
2021/05/16 00:45:10;;;;;;;4.87;1.80;;;6.60;99.90;;;;;;2081145;28;20229;-65
2021/05/16 00:46:11;;;;;;;3.55;1.50;;;6.50;99.90;;;;;;2081382;28;20188;-65
2021/05/16 00:47:11;;;;;;;4.17;1.50;;;6.50;99.90;;;;;;2081503;28;20177;-65
2021/05/16 00:48:12;;;;;;;6.07;1.90;;;6.50;99.90;;;;;;2082017;28;20196;-65
2021/05/16 00:49:15;;;;;;;5.83;1.57;;;6.50;99.90;;;;;;2082166;28;20183;-66
2021/05/16 00:50:19;;;;;;;3.88;1.80;;;6.60;99.90;;;;;;2082064;28;20173;-65
2021/05/16 00:51:20;;;;;;;3.80;1.60;;;6.60;99.90;;;;;;2081972;28;20666;-66
2021/05/16 00:52:26;;;;;;;6.67;1.80;;;6.60;99.90;;;;;;2081734;28;20185;-65
2021/05/16 00:53:26;;;;;;;5.38;1.60;;;6.60;99.90;;;;;;2082329;28;20169;-66
2021/05/16 00:54:27;;;;;;;4.73;1.53;;;6.60;99.90;;;;;;2082054;28;20184;-64
2021/05/16 00:55:28;;;;;;;4.27;1.70;;;6.50;99.90;;;;;;2081463;28;20202;-66
2021/05/16 00:56:28;;;;;;;6.87;1.57;;;6.50;99.90;;;;;;2073156;28;20586;-68
2021/05/16 00:57:29;;;;;;;6.37;1.80;;;6.50;99.90;;;;;;2081380;28;20201;-65
2021/05/16 00:58:30;;;;;;;5.63;1.50;;;6.60;99.90;;;;;;2081954;28;20209;-66
2021/05/16 00:59:31;;;;;;;3.47;1.33;;;6.60;99.90;;;;;;2081450;28;20318;-65
2021/05/16 01:00:41;;;;;;;7.00;1.70;;;6.60;99.90;;;;;;2081337;28;20648;-66
2021/05/16 01:01:42;;;;;;;4.75;1.83;;;6.70;99.90;;;;;;2081895;28;20189;-65
2021/05/16 01:02:43;;;;;;;4.50;1.33;;;6.70;99.90;;;;;;2081795;28;20628;-66
2021/05/16 01:03:44;;;;;;;5.55;1.70;;;6.70;99.90;;;;;;2082029;28;20177;-66
2021/05/16 01:04:45;;;;;;;3.53;1.70;;;6.70;99.90;;;;;;2081245;28;20213;-65
2021/05/16 01:05:46;;;;;;;6.50;1.70;;;6.70;99.90;;;;;;2081329;28;20194;-66
2021/05/16 01:06:47;;;;;;;6.35;1.80;;;6.80;99.90;;;;;;2081844;28;20204;-66
2021/05/16 01:07:48;;;;;;;5.63;1.90;;;6.80;99.90;;;;;;2082007;28;20181;-65
2021/05/16 01:08:50;;;;;;;3.85;1.33;;;6.90;99.90;;;;;;2081861;28;20256;-66
2021/05/16 01:09:50;;;;;;;3.92;1.58;;;6.90;99.90;;;;;;2081947;28;20214;-65
2021/05/16 01:10:51;;;;;;;5.53;1.73;;;6.90;99.90;;;;;;2081956;28;20232;-66
2021/05/16 01:11:52;;;;;;;6.23;1.93;;;6.90;99.90;;;;;;2081870;28;20269;-66
2021/05/16 01:12:55;;;;;;;3.60;1.50;;;6.90;99.90;;;;;;2081720;28;20483;-66
2021/05/16 01:13:56;;;;;;;7.53;1.80;;;6.90;99.90;;;;;;2081840;28;20185;-65
2021/05/16 01:14:59;;;;;;;7.07;1.80;;;6.90;99.90;;;;;;2098629;22;20786;-67
2021/05/16 01:16:00;;;;;;;5.00;1.50;;;6.90;99.90;;;;;;2089803;28;20173;-67
2021/05/16 01:17:02;;;;;;;4.73;1.90;;;6.90;99.90;;;;;;2089474;28;20263;-67
2021/05/16 01:18:03;;;;;;;5.22;1.63;;;7.00;99.90;;;;;;2090094;28;20175;-68
2021/05/16 01:19:03;;;;;;;3.10;1.47;;;7.00;99.90;;;;;;2089997;28;20177;-67
2021/05/16 01:20:09;;;;;;;6.13;1.70;;;7.10;99.90;;;;;;2090432;28;20175;-67
2021/05/16 01:21:10;;;;;;;5.47;1.60;;;7.10;99.90;;;;;;2090054;28;20172;-68
2021/05/16 01:22:10;;;;;;;6.10;1.70;;;7.10;99.90;;;;;;2090157;28;20181;-67
2021/05/16 01:23:16;;;;;;;4.97;1.60;;;7.20;99.90;;;;;;2090333;28;20530;-67
2021/05/16 01:24:20;;;;;;;4.88;1.70;;;7.20;99.90;;;;;;2090088;28;20187;-67
2021/05/16 01:25:23;;;;;;;6.25;1.35;;;7.20;99.90;;;;;;2090170;28;20267;-67
2021/05/16 01:26:23;;;;;;;4.60;1.52;;;7.20;99.90;;;;;;2090274;28;20187;-67
2021/05/16 01:27:24;;;;;;;4.23;1.40;;;7.20;99.90;;;;;;2090206;28;20182;-67
2021/05/16 01:28:24;;;;;;;4.00;1.40;;;7.10;99.90;;;;;;2090367;28;20508;-67
2021/05/16 01:29:26;;;;;;;3.77;1.40;;;7.10;99.90;;;;;;2089899;28;20642;-67
2021/05/16 01:30:27;;;;;;;4.38;1.40;;;7.10;99.90;;;;;;2090283;28;20177;-67
2021/05/16 01:31:28;;;;;;;3.70;1.17;;;7.20;99.90;;;;;;2089887;28;20245;-67
2021/05/16 01:32:29;;;;;;;4.33;1.40;;;7.20;99.90;;;;;;2090304;28;20207;-67
2021/05/16 01:33:30;;;;;;;4.40;1.70;;;7.20;99.90;;;;;;2089558;28;20183;-67
2021/05/16 01:34:31;;;;;;;2.40;1.15;;;7.20;99.90;;;;;;2090264;28;20223;-67
2021/05/16 01:35:33;;;;;;;4.83;1.20;;;7.20;99.90;;;;;;2089877;28;20188;-67
2021/05/16 01:36:35;;;;;;;3.25;1.13;;;7.20;99.90;;;;;;2090281;28;20184;-67
2021/05/16 01:37:35;;;;;;;4.22;1.30;;;7.20;99.90;;;;;;2090087;28;20176;-67
2021/05/16 01:38:36;;;;;;;2.87;1.30;;;7.20;99.90;;;;;;2090313;28;20514;-67
2021/05/16 01:39:39;;;;;;;3.87;1.23;;;7.20;99.90;;;;;;2090073;28;20192;-67
2021/05/16 01:40:40;;;;;;;2.83;1.30;;;7.20;99.90;;;;;;2089949;28;20172;-67
2021/05/16 01:41:42;;;;;;;3.33;1.10;;;7.20;99.90;;;;;;2089768;28;20216;-67
2021/05/16 01:42:49;;;;;;;2.38;1.10;;;7.20;99.90;;;;;;2089496;28;20173;-67
2021/05/16 01:43:51;;;;;;;2.15;1.13;;;7.10;99.90;;;;;;2081991;28;20166;-67
2021/05/16 01:45:02;;;;;;;7.20;1.40;;;7.10;99.90;;;;;;2089555;28;20719;-67
2021/05/16 01:46:04;;;;;;;2.33;1.00;;;7.10;99.90;;;;;;2089345;28;20675;-67
2021/05/16 01:47:05;;;;;;;6.53;1.17;;;7.10;99.90;;;;;;2074236;28;20173;-67
2021/05/16 01:48:06;;;;;;;3.53;1.07;;;7.10;99.90;;;;;;2073001;28;20680;-67
2021/05/16 01:49:07;;;;;;;2.90;1.00;;;7.10;99.90;;;;;;2081148;28;20173;-67
2021/05/16 01:50:15;;;;;;;2.87;1.27;;;7.10;99.90;;;;;;2089455;28;20730;-67
2021/05/16 01:51:18;;;;;;;1.92;1.02;;;7.10;99.90;;;;;;2089104;28;20157;-67
2021/05/16 01:52:26;;;;;;;2.17;1.02;;;7.10;99.90;;;;;;2081379;28;20173;-67
2021/05/16 01:53:27;;;;;;;2.25;0.90;;;7.10;99.90;;;;;;2082296;28;20630;-67
2021/05/16 01:54:29;;;;;;;2.83;1.30;;;7.00;99.90;;;;;;2081119;28;20205;-67
2021/05/16 01:55:30;;;;;;;1.75;1.02;;;7.00;99.90;;;;;;2081297;28;20217;-67
2021/05/16 01:56:30;;;;;;;2.03;0.97;;;7.10;99.90;;;;;;2089187;28;20549;-67
2021/05/16 01:57:31;;;;;;;3.70;1.00;;;7.10;99.90;;;;;;2090166;28;20580;-67
2021/05/16 01:58:35;;;;;;;4.03;1.17;;;7.10;99.90;;;;;;2089818;28;20187;-67
2021/05/16 01:59:37;;;;;;;2.03;0.90;;;7.10;99.90;;;;;;2089997;28;20207;-67
2021/05/16 02:00:41;;;;;;;3.30;1.00;;;7.10;99.90;;;;;;2089267;28;20177;-67
2021/05/16 02:01:42;;;;;;;2.53;1.08;;;7.10;99.90;;;;;;2081403;28;20191;-67
2021/05/16 02:02:45;;;;;;;2.55;1.38;;;7.00;99.90;;;;;;2089279;28;20203;-67
2021/05/16 02:03:46;;;;;;;2.95;1.23;;;7.00;99.90;;;;;;2082711;28;20201;-67
2021/05/16 02:04:47;;;;;;;3.08;0.88;;;7.00;99.90;;;;;;2072674;28;20209;-67
2021/05/16 02:05:51;;;;;;;2.60;1.10;;;7.00;99.90;;;;;;2072757;28;20181;-67
2021/05/16 02:06:52;;;;;;;6.65;1.25;;;7.00;99.90;;;;;;2081158;28;20662;-67
2021/05/16 02:07:53;;;;;;;3.60;1.25;;;7.00;99.90;;;;;;2072821;28;20182;-68
2021/05/16 02:08:54;;;;;;;2.50;1.13;;;7.00;99.90;;;;;;2073226;28;20382;-67
2021/05/16 02:09:55;;;;;;;1.83;0.97;;;7.00;99.90;;;;;;2081067;28;20533;-67
2021/05/16 02:10:55;;;;;;;2.35;1.25;;;6.90;99.90;;;;;;2081324;28;20601;-68
2021/05/16 02:11:56;;;;;;;1.13;1.00;;;6.90;99.90;;;;;;2081513;28;20217;-67
2021/05/16 02:12:57;;;;;;;1.97;0.77;;;6.90;99.90;;;;;;2081753;28;20205;-67
2021/05/16 02:13:58;;;;;;;2.30;0.80;;;6.90;99.90;;;;;;2081663;28;20173;-67
2021/05/16 02:14:58;;;;;;;1.00;0.90;;;6.90;99.90;;;;;;2081442;28;20209;-67
2021/05/16 02:15:59;;;;;;;2.40;0.90;;;6.90;99.90;;;;;;2081538;28;20204;-67
2021/05/16 02:17:04;;;;;;;2.00;0.97;;;6.90;99.90;;;;;;2089294;28;20176;-67
2021/05/16 02:18:05;;;;;;;2.40;0.90;;;6.80;99.90;;;;;;2080848;28;20223;-67
2021/05/16 02:19:06;;;;;;;2.33;1.27;;;6.80;99.90;;;;;;2081298;28;20185;-67
2021/05/16 02:20:14;;;;;;;3.03;1.30;;;6.80;99.90;;;;;;2081579;28;20552;-67
2021/05/16 02:21:15;;;;;;;5.53;1.10;;;6.80;99.90;;;;;;2081521;28;20636;-67
2021/05/16 02:22:16;;;;;;;2.43;1.00;;;6.80;99.90;;;;;;2081524;28;20205;-67
2021/05/16 02:23:16;;;;;;;3.20;0.95;;;6.90;99.90;;;;;;2081562;28;20180;-67
2021/05/16 02:24:18;;;;;;;3.10;1.00;;;6.90;99.90;;;;;;2081522;28;20185;-67
2021/05/16 02:25:18;;;;;;;2.10;0.98;;;6.90;99.90;;;;;;2081548;28;20764;-67
2021/05/16 02:26:19;;;;;;;2.27;0.80;;;6.90;99.90;;;;;;2080887;28;20176;-67
2021/05/16 02:27:20;;;;;;;2.70;1.00;;;6.90;99.90;;;;;;2081014;28;20216;-67
2021/05/16 02:28:21;;;;;;;3.43;1.00;;;6.90;99.90;;;;;;2081458;28;20181;-67
2021/05/16 02:29:22;;;;;;;3.20;0.93;;;6.90;99.90;;;;;;2081428;28;20189;-68
2021/05/16 02:30:23;;;;;;;1.20;0.90;;;6.90;99.90;;;;;;2081398;28;20648;-67
2021/05/16 02:31:24;;;;;;;2.95;0.82;;;6.90;99.90;;;;;;2081241;28;20731;-67
2021/05/16 02:32:25;;;;;;;2.77;1.10;;;7.00;99.90;;;;;;2081495;28;20189;-67
2021/05/16 02:33:26;;;;;;;2.95;1.00;;;6.90;99.90;;;;;;2080887;28;20209;-67
2021/05/16 02:34:27;;;;;;;3.10;0.80;;;6.90;99.90;;;;;;2080731;28;20203;-67
2021/05/16 02:35:27;;;;;;;2.75;0.95;;;6.90;99.90;;;;;;2081561;28;20566;-67
2021/05/16 02:36:28;;;;;;;2.57;0.90;;;6.80;99.90;;;;;;2081510;28;20188;-67
2021/05/16 02:37:29;;;;;;;1.87;0.90;;;6.80;99.90;;;;;;2081474;28;20181;-67
2021/05/16 02:38:30;;;;;;;2.30;0.90;;;6.80;99.90;;;;;;2081442;28;20911;-67
2021/05/16 02:39:31;;;;;;;1.90;0.90;;;6.80;99.90;;;;;;2081346;28;20207;-67
2021/05/16 02:40:32;;;;;;;1.00;0.77;;;6.80;99.90;;;;;;2081431;28;20275;-67
2021/05/16 02:41:33;;;;;;;1.73;0.80;;;6.80;99.90;;;;;;2081205;28;20185;-67
2021/05/16 02:42:33;;;;;;;1.67;0.90;;;6.80;99.90;;;;;;2080873;28;20177;-67
2021/05/16 02:43:34;;;;;;;2.57;1.00;;;6.80;99.90;;;;;;2080785;28;20180;-67
2021/05/16 02:44:35;;;;;;;1.93;1.00;;;6.80;99.90;;;;;;2080939;28;20180;-67
2021/05/16 02:45:36;;;;;;;2.25;1.02;;;6.90;99.90;;;;;;2080674;28;20597;-67
2021/05/16 02:46:39;;;;;;;2.07;1.00;;;6.90;99.90;;;;;;2081890;28;20189;-67
2021/05/16 02:47:40;;;;;;;3.20;1.20;;;6.90;99.90;;;;;;2085273;28;20568;-67
2021/05/16 02:48:41;;;;;;;2.65;1.00;;;6.90;99.90;;;;;;2089634;28;20180;-67
2021/05/16 02:49:42;;;;;;;3.47;1.00;;;6.80;99.90;;;;;;2089533;28;20255;-67
2021/05/16 02:50:43;;;;;;;1.43;0.80;;;6.80;99.90;;;;;;2089626;28;20677;-67
2021/05/16 02:51:43;;;;;;;1.60;0.93;;;6.90;99.90;;;;;;2089335;28;20268;-68
2021/05/16 02:52:44;;;;;;;3.00;1.10;;;6.90;99.90;;;;;;2089628;28;20171;-67
2021/05/16 02:53:45;;;;;;;2.90;1.47;;;6.90;99.90;;;;;;2089594;28;20208;-67
2021/05/16 02:54:47;;;;;;;3.17;0.97;;;6.90;99.90;;;;;;2089657;28;20571;-67
2021/05/16 02:55:48;;;;;;;3.55;1.10;;;6.90;99.90;;;;;;2089383;28;20267;-67
2021/05/16 02:56:49;;;;;;;3.67;1.42;;;6.90;99.90;;;;;;2089647;28;20184;-67
2021/05/16 02:57:50;;;;;;;4.57;1.00;;;6.90;99.90;;;;;;2088801;28;20184;-67
2021/05/16 02:58:50;;;;;;;3.07;1.00;;;6.90;99.90;;;;;;2089004;28;20191;-67
2021/05/16 02:59:51;;;;;;;2.23;1.07;;;6.90;99.90;;;;;;2089580;28;20207;-67
2021/05/16 03:00:52;;;;;;;2.03;1.20;;;6.90;99.90;;;;;;2089728;28;20615;-67
2021/05/16 03:01:53;;;;;;;2.83;1.00;;;7.00;99.90;;;;;;2089337;28;20195;-67
2021/05/16 03:02:54;;;;;;;3.27;1.20;;;7.00;99.90;;;;;;2089731;28;20194;-67
2021/05/16 03:03:54;;;;;;;2.83;1.23;;;7.00;99.90;;;;;;2089426;28;20271;-67
2021/05/16 03:04:55;;;;;;;5.10;1.27;;;7.00;99.90;;;;;;2089436;28;20573;-67
2021/05/16 03:05:56;;;;;;;2.37;1.00;;;7.00;99.90;;;;;;2089360;28;20182;-67
2021/05/16 03:06:57;;;;;;;2.33;1.07;;;7.00;99.90;;;;;;2089465;28;20184;-67
2021/05/16 03:07:58;;;;;;;3.15;1.20;;;7.00;99.90;;;;;;2089367;28;20173;-67
2021/05/16 03:08:58;;;;;;;3.33;1.07;;;7.00;99.90;;;;;;2088778;28;20260;-67
2021/05/16 03:09:59;;;;;;;3.53;1.17;;;7.00;99.90;;;;;;2088871;28;20612;-67
2021/05/16 03:11:00;;;;;;;2.73;1.10;;;6.90;99.90;;;;;;2089601;28;20545;-67
2021/05/16 03:12:06;;;;;;;3.78;1.30;;;6.90;99.90;;;;;;2089128;28;20215;-67
2021/05/16 03:13:07;;;;;;;4.85;1.45;;;6.90;99.90;;;;;;2089489;28;20246;-67
2021/05/16 03:14:08;;;;;;;4.37;1.43;;;6.90;99.90;;;;;;2089444;28;20639;-67
2021/05/16 03:15:10;;;;;;;1.88;0.95;;;6.90;99.90;;;;;;2089215;28;20699;-67
2021/05/16 03:16:11;;;;;;;2.50;1.20;;;6.90;99.90;;;;;;2089424;28;20223;-67
2021/05/16 03:17:12;;;;;;;5.97;1.63;;;6.80;99.90;;;;;;2089285;28;20793;-67
2021/05/16 03:18:12;;;;;;;4.57;1.30;;;6.80;99.90;;;;;;2089347;28;20259;-67
2021/05/16 03:19:13;;;;;;;5.50;1.30;;;6.80;99.90;;;;;;2089445;28;20184;-67
2021/05/16 03:20:15;;;;;;;3.63;1.37;;;6.80;99.90;;;;;;2089430;28;20205;-67
2021/05/16 03:21:16;;;;;;;3.60;1.20;;;6.80;99.90;;;;;;2089236;28;20181;-67
2021/05/16 03:22:16;;;;;;;3.08;1.23;;;6.70;99.90;;;;;;2088885;28;20192;-67
2021/05/16 03:23:17;;;;;;;1.77;1.23;;;6.80;99.90;;;;;;2088612;28;20180;-67
2021/05/16 03:24:18;;;;;;;4.53;1.37;;;6.70;99.90;;;;;;2089436;28;20184;-67
2021/05/16 03:25:19;;;;;;;3.03;1.20;;;6.70;99.90;;;;;;2089387;28;20461;-67
2021/05/16 03:26:20;;;;;;;3.00;1.37;;;6.80;99.90;;;;;;2089433;28;20411;-67
2021/05/16 03:27:20;;;;;;;1.80;0.93;;;6.80;99.90;;;;;;2089306;28;20261;-67
2021/05/16 03:28:21;;;;;;;2.80;0.90;;;6.80;99.90;;;;;;2089507;28;20554;-67
2021/05/16 03:29:22;;;;;;;1.63;0.83;;;6.80;99.90;;;;;;2089341;28;20887;-67
2021/05/16 03:30:23;;;;;;;4.50;1.10;;;6.80;99.90;;;;;;2089610;28;20263;-67
2021/05/16 03:31:23;;;;;;;3.03;0.87;;;6.80;99.90;;;;;;2089092;28;20180;-67
2021/05/16 03:32:24;;;;;;;3.00;1.03;;;6.90;99.90;;;;;;2089275;28;20192;-67
2021/05/16 03:33:25;;;;;;;1.93;0.90;;;6.90;99.90;;;;;;2089160;28;20173;-67
2021/05/16 03:34:26;;;;;;;2.17;0.97;;;6.90;99.90;;;;;;2089265;28;20184;-67
2021/05/16 03:35:26;;;;;;;3.33;0.80;;;6.90;99.90;;;;;;2089399;28;20191;-67
2021/05/16 03:36:27;;;;;;;2.13;1.00;;;6.90;99.90;;;;;;2089373;28;20180;-67
2021/05/16 03:37:28;;;;;;;2.17;1.00;;;6.90;99.90;;;;;;2089333;28;20184;-67
2021/05/16 03:38:28;;;;;;;1.00;0.90;;;6.90;99.90;;;;;;2089496;28;20177;-67
2021/05/16 03:39:29;;;;;;;2.33;1.07;;;6.80;99.90;;;;;;2089211;28;20199;-67
2021/05/16 03:40:30;;;;;;;3.50;1.00;;;6.80;99.90;;;;;;2089360;28;20176;-67
2021/05/16 03:41:30;;;;;;;1.00;0.90;;;6.80;99.90;;;;;;2089056;28;20201;-67
2021/05/16 03:42:33;;;;;;;1.17;0.77;;;6.80;99.90;;;;;;2089246;28;20636;-67
2021/05/16 03:43:34;;;;;;;2.65;0.80;;;6.90;99.90;;;;;;2089183;28;20173;-67
2021/05/16 03:44:34;;;;;;;2.03;0.90;;;6.90;99.90;;;;;;2089055;28;20644;-67
2021/05/16 03:45:35;;;;;;;1.47;0.67;;;6.90;99.90;;;;;;2089171;28;20180;-67
2021/05/16 03:46:36;;;;;;;0.70;0.70;;;6.90;99.90;;;;;;2089308;28;20275;-67
2021/05/16 03:47:41;;;;;;;0.93;0.60;;;7.00;99.90;;;;;;2089162;28;20184;-67
2021/05/16 03:48:42;;;;;;;0.98;0.63;;;7.00;99.90;;;;;;2089333;28;20249;-67
2021/05/16 03:49:43;;;;;;;1.65;0.60;;;7.00;99.90;;;;;;2089028;28;20196;-67
2021/05/16 03:50:44;;;;;;;1.30;0.60;;;6.90;99.90;;;;;;2089324;28;20522;-67
2021/05/16 03:51:45;;;;;;;2.37;0.77;;;7.00;99.90;;;;;;2089020;28;20180;-67
2021/05/16 03:52:46;;;;;;;1.80;0.80;;;7.00;99.90;;;;;;2089297;28;20173;-67
2021/05/16 03:53:47;;;;;;;1.63;0.70;;;6.90;99.90;;;;;;2089276;28;20184;-67
2021/05/16 03:54:49;;;;;;;1.10;0.60;;;7.00;99.90;;;;;;2089391;28;20246;-67
2021/05/16 03:55:50;;;;;;;1.75;0.57;;;7.00;99.90;;;;;;2089001;28;20194;-67
2021/05/16 03:56:50;;;;;;;2.47;0.70;;;7.00;99.90;;;;;;2089210;28;20656;-67
2021/05/16 03:57:52;;;;;;;1.80;0.70;;;7.00;99.90;;;;;;2089230;28;20215;-67
2021/05/16 03:58:52;;;;;;;0.63;0.47;;;7.00;99.90;;;;;;2089076;28;20181;-67
2021/05/16 03:59:53;;;;;;;0.60;0.60;;;7.00;99.90;;;;;;2089153;28;20229;-68
2021/05/16 04:00:53;;;;;;;1.27;0.50;;;7.00;99.90;;;;;;2089001;28;20260;-67
2021/05/16 04:01:54;;;;;;;1.23;0.60;;;6.90;99.90;;;;;;2088930;28;20681;-67
2021/05/16 04:02:55;;;;;;;1.03;0.50;;;6.90;99.90;;;;;;2089151;28;20647;-67
2021/05/16 04:03:55;;;;;;;1.23;0.70;;;6.90;99.90;;;;;;2089233;28;20200;-67
2021/05/16 04:04:56;;;;;;;0.50;0.50;;;6.90;99.90;;;;;;2089076;28;20204;-67
2021/05/16 04:05:57;;;;;;;1.90;0.60;;;6.90;99.90;;;;;;2089167;28;20189;-67
2021/05/16 04:06:57;;;;;;;1.93;0.60;;;6.80;99.90;;;;;;2089076;28;20172;-67
2021/05/16 04:07:58;;;;;;;1.27;0.73;;;6.80;99.90;;;;;;2089356;28;20230;-67
2021/05/16 04:08:59;;;;;;;1.70;0.47;;;6.80;99.90;;;;;;2089155;28;20172;-67
2021/05/16 04:09:59;;;;;;;1.60;0.60;;;6.80;99.90;;;;;;2089139;28;20180;-67
2021/05/16 04:11:00;;;;;;;1.77;0.53;;;6.80;99.90;;;;;;2089150;28;20172;-67
2021/05/16 04:12:01;;;;;;;3.30;0.60;;;6.80;99.90;;;;;;2088997;28;20184;-67
2021/05/16 04:13:02;;;;;;;1.23;0.40;;;6.80;99.90;;;;;;2088588;28;20311;-67
2021/05/16 04:14:03;;;;;;;1.50;0.57;;;6.80;99.90;;;;;;2088664;28;20643;-67
2021/05/16 04:15:06;;;;;;;0.88;0.50;;;6.80;99.90;;;;;;2088879;28;20270;-67
2021/05/16 04:16:07;;;;;;;0.43;0.40;;;6.80;99.90;;;;;;2089197;28;20192;-67
2021/05/16 04:17:07;;;;;;;0.80;0.57;;;6.70;99.90;;;;;;2088858;28;20552;-67
2021/05/16 04:18:08;;;;;;;1.70;0.53;;;6.70;99.90;;;;;;2089101;28;20204;-67
2021/05/16 04:19:09;;;;;;;1.30;0.60;;;6.80;99.90;;;;;;2089108;28;20263;-67
2021/05/16 04:20:11;;;;;;;1.67;0.63;;;6.80;99.90;;;;;;2089029;28;20183;-67
2021/05/16 04:21:11;;;;;;;1.02;0.63;;;6.70;99.90;;;;;;2088784;28;20180;-67
2021/05/16 04:22:12;;;;;;;0.90;0.60;;;6.80;99.90;;;;;;2088976;28;20293;-67
2021/05/16 04:23:14;;;;;;;3.95;0.80;;;6.80;99.90;;;;;;2088990;28;20255;-66
2021/05/16 04:24:15;;;;;;;2.70;1.00;;;6.80;99.90;;;;;;2089028;28;20187;-67
2021/05/16 04:25:16;;;;;;;2.43;0.73;;;6.80;99.90;;;;;;2088832;28;20203;-66
2021/05/16 04:26:16;;;;;;;3.80;0.80;;;6.80;99.90;;;;;;2096641;28;20249;-67
2021/05/16 04:27:17;;;;;;;1.07;0.70;;;6.80;99.90;;;;;;2096530;28;20179;-67
2021/05/16 04:28:18;;;;;;;1.90;0.77;;;6.80;99.90;;;;;;2088992;28;20231;-67
2021/05/16 04:29:18;;;;;;;1.87;0.70;;;6.80;99.90;;;;;;2088386;28;20188;-67
2021/05/16 04:30:20;;;;;;;2.30;1.63;;;6.80;99.90;;;;;;2088324;28;20270;-67
2021/05/16 04:31:20;;;;;;;2.40;0.80;;;6.80;99.90;;;;;;2088719;28;20176;-66
2021/05/16 04:32:21;;;;;;;2.33;0.77;;;6.80;99.90;;;;;;2089087;28;20560;-67
2021/05/16 04:33:22;;;;;;;2.00;0.93;;;6.70;99.90;;;;;;2088818;28;20238;-67
2021/05/16 04:34:22;;;;;;;1.20;0.90;;;6.80;99.90;;;;;;2088959;28;20316;-67
2021/05/16 04:35:23;;;;;;;1.83;0.90;;;6.80;99.90;;;;;;2088878;28;20211;-67
2021/05/16 04:36:24;;;;;;;2.00;0.97;;;6.80;99.90;;;;;;2088966;28;20185;-67
2021/05/16 04:37:26;;;;;;;1.90;1.00;;;6.90;99.90;;;;;;2089058;28;20207;-67
2021/05/16 04:38:27;;;;;;;1.65;0.75;;;6.90;99.90;;;;;;2088848;28;20573;-67
2021/05/16 04:39:27;;;;;;;1.43;0.80;;;6.90;99.90;;;;;;2088967;28;20185;-67
2021/05/16 04:40:28;;;;;;;4.33;1.13;;;6.90;99.90;;;;;;2088901;28;20187;-67
2021/05/16 04:41:29;;;;;;;3.83;0.90;;;6.90;99.90;;;;;;2088820;28;20614;-68
2021/05/16 04:42:30;;;;;;;3.57;0.90;;;6.90;99.90;;;;;;2088904;28;20616;-67
2021/05/16 04:43:31;;;;;;;2.28;0.95;;;7.00;99.90;;;;;;2088779;28;20177;-67
2021/05/16 04:44:31;;;;;;;1.87;1.00;;;7.10;99.90;;;;;;2088754;28;20280;-67
2021/05/16 04:45:32;;;;;;;2.17;1.00;;;7.00;99.90;;;;;;2087953;28;20548;-68
2021/05/16 04:46:36;;;;;;;1.73;0.97;;;7.00;99.90;;;;;;2086839;28;20564;-68
2021/05/16 04:47:37;;;;;;;3.78;1.20;;;7.00;99.90;;;;;;2088315;28;20677;-68
2021/05/16 04:48:38;;;;;;;3.13;1.10;;;7.00;99.90;;;;;;2088342;28;20192;-67
2021/05/16 04:49:39;;;;;;;1.27;0.88;;;7.10;99.90;;;;;;2088818;28;20208;-67
2021/05/16 04:50:39;;;;;;;2.87;1.00;;;7.10;99.90;;;;;;2088231;28;20651;-68
2021/05/16 04:51:40;;;;;;;2.33;1.10;;;7.10;99.90;;;;;;2088109;28;20185;-67
2021/05/16 04:52:41;;;;;;;2.63;0.97;;;7.20;99.90;;;;;;2088939;28;20264;-67
2021/05/16 04:53:42;;;;;;;2.70;0.98;;;7.10;99.90;;;;;;2088928;28;20180;-68
2021/05/16 04:54:43;;;;;;;2.83;1.17;;;7.10;99.90;;;;;;2088645;28;20201;-68
2021/05/16 04:55:43;;;;;;;3.23;0.90;;;7.10;99.90;;;;;;2088931;28;20181;-67
2021/05/16 04:56:44;;;;;;;1.60;0.80;;;7.20;99.90;;;;;;2088780;28;20658;-67
2021/05/16 04:57:45;;;;;;;1.97;0.90;;;7.30;99.90;;;;;;2088901;28;20542;-68
2021/05/16 04:58:46;;;;;;;1.97;0.97;;;7.30;99.90;;;;;;2088793;28;20223;-67
2021/05/16 04:59:49;;;;;;;4.07;1.10;;;7.40;99.90;;;;;;2088841;28;20185;-68
2021/05/16 05:00:50;;;;;;;3.47;1.08;;;7.50;99.90;;;;;;2088723;28;20241;-68
2021/05/16 05:01:51;;;;;;;1.67;0.80;;;7.60;99.90;;;;;;2088759;28;20208;-67
2021/05/16 05:02:52;;;;;;;3.47;1.10;;;7.70;99.90;;;;;;2088776;28;20172;-67
2021/05/16 05:03:55;;;;;;;2.60;0.97;;;7.80;99.90;;;;;;2088986;28;20181;-67
2021/05/16 05:04:56;;;;;;;3.47;0.90;;;7.80;99.90;;;;;;2088027;28;20221;-68
2021/05/16 05:05:56;;;;;;;3.43;1.10;;;7.60;99.90;;;;;;2088154;28;20207;-68
2021/05/16 05:06:58;;;;;;;3.47;1.20;;;7.50;99.90;;;;;;2088743;28;20724;-68
2021/05/16 05:08:00;;;;;;;2.80;1.30;;;7.40;99.90;;;;;;2088780;28;20172;-68
2021/05/16 05:09:07;;;;;;;3.88;1.40;;;7.40;99.90;;;;;;2090220;28;20215;-68
2021/05/16 05:10:09;;;;;;;4.05;1.60;;;7.40;99.90;;;;;;2090302;28;20160;-68
2021/05/16 05:11:10;;;;;;;6.03;1.25;;;7.40;99.90;;;;;;2090008;28;20211;-68
2021/05/16 05:12:11;;;;;;;2.23;1.20;;;7.40;99.90;;;;;;2090344;28;20684;-67
2021/05/16 05:13:12;;;;;;;5.53;1.40;;;7.40;99.90;;;;;;2090245;28;20659;-68
2021/05/16 05:14:12;;;;;;;4.90;1.60;;;7.40;99.90;;;;;;2090335;28;20692;-68
2021/05/16 05:15:13;;;;;;;2.27;1.33;;;7.40;99.90;;;;;;2089987;28;20200;-68
2021/05/16 05:16:14;;;;;;;3.73;1.10;;;7.50;99.90;;;;;;2090218;28;20184;-68
2021/05/16 05:17:14;;;;;;;2.77;1.13;;;7.50;99.90;;;;;;2090167;28;20184;-68
2021/05/16 05:18:16;;;;;;;2.90;1.30;;;7.50;99.90;;;;;;2090305;28;20310;-68
2021/05/16 05:19:17;;;;;;;5.53;1.50;;;7.40;99.90;;;;;;2090277;28;20184;-68
2021/05/16 05:20:18;;;;;;;4.97;1.40;;;7.40;99.90;;;;;;2090276;28;20608;-67
2021/05/16 05:21:18;;;;;;;4.40;1.50;;;7.50;99.90;;;;;;2089852;28;20190;-68
2021/05/16 05:22:19;;;;;;;3.40;1.60;;;7.50;99.90;;;;;;2090268;28;20268;-68
2021/05/16 05:23:20;;;;;;;2.87;1.27;;;7.50;99.90;;;;;;2090236;28;20172;-68
2021/05/16 05:24:22;;;;;;;2.00;1.20;;;7.50;99.90;;;;;;2090199;28;20176;-68
2021/05/16 05:25:23;;;;;;;1.27;0.88;;;7.50;99.90;;;;;;2090094;28;20231;-68